Cape Haze, Florida
Current Conditions -  °F | °C
As of 9:35 PM on Friday 28 Nov 2014 (Local Time) from KVNC Reporting Station
Few Clouds Few Clouds  
Wind Chill: 50°   Ceiling: Unl
Heat Index: 50°   Visibility: 10mi
Dew Point: 39°   Wind: 7mph
Humidity: 66%   Direction: 30°NNE
Pressure: 30.29"   Gusts: NA
Location:  26.8889°N, 82.2745°W
Report Text: KVNC 290235Z AUTO 03006KT 10SM FEW028 10/04 A3029 RMK AO2 TSNO
Loading
Personal Weather Stations






























Interactive Weather Map New forecast layout! Learn more

10-Day Weather Forecast

Advertisements
Track Severe Weather on mobile